createdAt,value
2016-07-01T00:00:51.383Z,0
2016-07-01T00:01:49.537Z,0
2016-07-01T00:02:50.748Z,0
2016-07-01T00:03:50.189Z,0
2016-07-01T00:04:50.827Z,0
2016-07-01T00:05:50.148Z,0
2016-07-01T00:06:50.761Z,0
2016-07-01T00:07:51.448Z,0
2016-07-01T00:08:50.787Z,0
2016-07-01T00:09:50.779Z,0
2016-07-01T00:10:50.252Z,0
2016-07-01T00:11:50.799Z,0
2016-07-01T00:12:50.812Z,0
2016-07-01T00:13:51.465Z,0
2016-07-01T00:14:50.807Z,0
2016-07-01T00:15:50.215Z,0
2016-07-01T00:16:49.584Z,0
2016-07-01T00:17:51.459Z,0
2016-07-01T00:18:51.707Z,0
2016-07-01T00:19:51.495Z,0
2016-07-01T00:20:50.209Z,0
2016-07-01T00:21:50.854Z,0
2016-07-01T00:22:50.219Z,0
2016-07-01T00:23:51.478Z,0
2016-07-01T00:24:49.026Z,0
2016-07-01T00:25:51.501Z,0
2016-07-01T00:26:50.857Z,0
2016-07-01T00:27:49.668Z,0
2016-07-01T00:28:50.256Z,0
2016-07-01T00:29:50.877Z,0
2016-07-01T00:30:51.541Z,0
2016-07-01T00:31:50.293Z,0
2016-07-01T00:32:50.271Z,0
2016-07-01T00:33:50.897Z,0
2016-07-01T00:34:51.513Z,0
2016-07-01T00:35:49.677Z,0
2016-07-01T00:36:49.724Z,0
2016-07-01T00:37:50.914Z,0
2016-07-01T00:38:50.326Z,0
2016-07-01T00:39:50.939Z,0
2016-07-01T00:40:49.710Z,0
2016-07-01T00:41:50.329Z,0
2016-07-01T00:42:50.942Z,0
2016-07-01T00:43:49.705Z,0
2016-07-01T00:44:50.967Z,0
2016-07-01T00:45:50.967Z,0
2016-07-01T00:46:49.724Z,0
2016-07-01T00:47:49.750Z,0
2016-07-01T00:48:51.631Z,0
2016-07-01T00:49:49.741Z,0
2016-07-01T00:50:51.030Z,0
2016-07-01T00:51:50.983Z,0
2016-07-01T00:52:51.022Z,0
2016-07-01T00:53:51.019Z,0
2016-07-01T00:54:51.020Z,0
2016-07-01T00:55:51.671Z,0
2016-07-01T00:56:51.634Z,0
2016-07-01T00:57:51.653Z,0
2016-07-01T00:58:51.681Z,0
2016-07-01T00:59:49.797Z,0
2016-07-01T01:00:50.471Z,0
2016-07-01T01:01:51.062Z,0
2016-07-01T01:02:51.663Z,0
2016-07-01T01:03:51.058Z,0
2016-07-01T01:04:51.112Z,0
2016-07-01T01:05:49.845Z,0
2016-07-01T01:06:51.058Z,0
2016-07-01T01:07:51.154Z,0
2016-07-01T01:08:51.770Z,0
2016-07-01T01:09:50.466Z,0
2016-07-01T01:10:51.088Z,0
2016-07-01T01:11:50.467Z,0
2016-07-01T01:12:51.713Z,0
2016-07-01T01:13:50.542Z,0
2016-07-01T01:14:51.155Z,0
2016-07-01T01:15:51.160Z,0
2016-07-01T01:16:51.137Z,0
2016-07-01T01:17:50.528Z,0
2016-07-01T01:18:51.132Z,0
2016-07-01T01:19:50.530Z,0
2016-07-01T01:20:50.532Z,0
2016-07-01T01:21:51.780Z,0
2016-07-01T01:22:51.158Z,0
2016-07-01T01:23:51.806Z,0
2016-07-01T01:24:50.536Z,0
2016-07-01T01:25:50.539Z,0
2016-07-01T01:26:51.789Z,0
2016-07-01T01:27:51.405Z,0
2016-07-01T01:28:50.555Z,0
2016-07-01T01:29:51.184Z,0
2016-07-01T01:30:51.196Z,0
2016-07-01T01:31:51.821Z,0
2016-07-01T01:32:49.999Z,0
2016-07-01T01:33:51.242Z,0
2016-07-01T01:34:51.206Z,0
2016-07-01T01:35:50.618Z,0
2016-07-01T01:36:51.831Z,0
2016-07-01T01:37:51.846Z,0
2016-07-01T01:38:51.850Z,0
2016-07-01T01:39:50.631Z,0
2016-07-01T01:40:51.268Z,0
2016-07-01T01:41:51.296Z,0
2016-07-01T01:42:51.870Z,0
2016-07-01T01:43:51.261Z,0
2016-07-01T01:44:50.656Z,0
2016-07-01T01:45:51.279Z,0
2016-07-01T01:46:50.055Z,0
2016-07-01T01:47:51.276Z,0
2016-07-01T01:48:50.037Z,0
2016-07-01T01:49:50.061Z,0
2016-07-01T01:50:51.290Z,0
2016-07-01T01:51:51.296Z,0
2016-07-01T01:52:50.674Z,0
2016-07-01T01:53:50.055Z,0
2016-07-01T01:54:51.994Z,0
2016-07-01T01:55:51.939Z,0
2016-07-01T01:56:51.347Z,0
2016-07-01T01:57:50.722Z,0
2016-07-01T01:58:50.098Z,0
2016-07-01T01:59:50.727Z,0
2016-07-01T02:00:51.369Z,0
2016-07-01T02:01:51.976Z,0
2016-07-01T02:02:52.053Z,0
2016-07-01T02:03:50.122Z,0
2016-07-01T02:04:50.755Z,0
2016-07-01T02:05:50.149Z,0
2016-07-01T02:06:51.374Z,0
2016-07-01T02:07:51.385Z,0
2016-07-01T02:08:51.398Z,0
2016-07-01T02:09:52.003Z,0
2016-07-01T02:10:51.418Z,0
2016-07-01T02:11:50.172Z,0
2016-07-01T02:12:51.432Z,0
2016-07-01T02:13:52.049Z,0
2016-07-01T02:14:52.038Z,0
2016-07-01T02:15:51.437Z,0
2016-07-01T02:16:51.451Z,0
2016-07-01T02:17:50.211Z,0
2016-07-01T02:18:50.887Z,0
2016-07-01T02:19:50.941Z,0
2016-07-01T02:20:51.463Z,0
2016-07-01T02:21:50.879Z,0
2016-07-01T02:22:50.846Z,0
2016-07-01T02:23:49.609Z,0
2016-07-01T02:24:51.465Z,0
2016-07-01T02:25:51.465Z,0
2016-07-01T02:26:51.493Z,0
2016-07-01T02:27:51.483Z,0
2016-07-01T02:28:50.878Z,0
2016-07-01T02:29:51.494Z,0
2016-07-01T02:30:52.129Z,0
2016-07-01T02:31:51.501Z,0
2016-07-01T02:32:52.151Z,0
2016-07-01T02:33:50.282Z,0
2016-07-01T02:34:50.892Z,0
2016-07-01T02:35:50.917Z,0
2016-07-01T02:36:52.159Z,0
2016-07-01T02:37:51.539Z,0
2016-07-01T02:38:52.166Z,0
2016-07-01T02:39:50.927Z,0
2016-07-01T02:40:50.305Z,0
2016-07-01T02:41:50.342Z,0
2016-07-01T02:42:51.573Z,0
2016-07-01T02:43:50.986Z,0
2016-07-01T02:44:51.571Z,0
2016-07-01T02:45:52.216Z,0
2016-07-01T02:46:52.205Z,0
2016-07-01T02:47:49.724Z,0
2016-07-01T02:48:52.215Z,0
2016-07-01T02:49:51.596Z,0
2016-07-01T02:50:51.600Z,0
2016-07-01T02:51:50.974Z,0
2016-07-01T02:52:51.620Z,0
2016-07-01T02:53:51.012Z,0
2016-07-01T02:54:51.659Z,0
2016-07-01T02:55:50.991Z,0
2016-07-01T02:56:51.025Z,0
2016-07-01T02:57:51.634Z,0
2016-07-01T02:58:51.647Z,0
2016-07-01T02:59:50.431Z,0
2016-07-01T03:00:51.662Z,0
2016-07-01T03:01:51.664Z,0
2016-07-01T03:02:51.662Z,0
2016-07-01T03:03:51.659Z,0
2016-07-01T03:04:51.661Z,0
2016-07-01T03:05:51.665Z,0
2016-07-01T03:06:51.676Z,0
2016-07-01T03:07:51.737Z,0
2016-07-01T03:08:52.295Z,0
2016-07-01T03:09:51.724Z,0
2016-07-01T03:10:51.135Z,0
2016-07-01T03:11:51.102Z,0
2016-07-01T03:12:51.740Z,0
2016-07-01T03:13:51.722Z,0
2016-07-01T03:14:50.486Z,0
2016-07-01T03:15:52.343Z,0
2016-07-01T03:16:51.113Z,0
2016-07-01T03:17:51.734Z,0
2016-07-01T03:18:51.163Z,0
2016-07-01T03:19:51.745Z,0
2016-07-01T03:20:51.158Z,0
2016-07-01T03:21:51.847Z,0
2016-07-01T03:22:50.545Z,0
2016-07-01T03:23:51.150Z,0
2016-07-01T03:24:51.170Z,0
2016-07-01T03:25:51.851Z,0
2016-07-01T03:26:51.801Z,0
2016-07-01T03:27:51.799Z,0
2016-07-01T03:28:51.194Z,0
2016-07-01T03:29:50.561Z,0
2016-07-01T03:30:51.218Z,0
2016-07-01T03:31:51.203Z,0
2016-07-01T03:32:51.797Z,0
2016-07-01T03:33:51.194Z,0
2016-07-01T03:34:50.614Z,0
2016-07-01T03:35:51.209Z,0
2016-07-01T03:36:51.839Z,0
2016-07-01T03:37:51.842Z,0
2016-07-01T03:38:51.920Z,0
2016-07-01T03:39:52.483Z,0
2016-07-01T03:40:51.222Z,0
2016-07-01T03:41:51.235Z,0
2016-07-01T03:42:51.244Z,0
2016-07-01T03:43:51.899Z,0
2016-07-01T03:44:50.660Z,0
2016-07-01T03:45:51.279Z,0
2016-07-01T03:46:51.891Z,0
2016-07-01T03:47:51.298Z,0
2016-07-01T03:48:51.901Z,0
2016-07-01T03:49:51.902Z,0
2016-07-01T03:50:51.903Z,0
2016-07-01T03:51:51.909Z,0
2016-07-01T03:52:51.914Z,0
2016-07-01T03:53:51.911Z,0
2016-07-01T03:54:52.554Z,0
2016-07-01T03:55:51.323Z,0
2016-07-01T03:56:50.687Z,0
2016-07-01T03:57:51.963Z,0
2016-07-01T03:58:51.326Z,0
2016-07-01T03:59:51.321Z,0
2016-07-01T04:00:51.955Z,0
2016-07-01T04:01:51.974Z,5
2016-07-01T04:02:51.993Z,5
2016-07-01T04:03:51.988Z,5
2016-07-01T04:04:51.993Z,5
2016-07-01T04:05:52.004Z,5
2016-07-01T04:06:52.002Z,5
2016-07-01T04:07:52.042Z,5
2016-07-01T04:08:51.370Z,5
2016-07-01T04:09:51.999Z,5
2016-07-01T04:10:52.639Z,5
2016-07-01T04:11:50.769Z,5
2016-07-01T04:12:50.788Z,5
2016-07-01T04:13:51.408Z,5
2016-07-01T04:14:50.793Z,5
2016-07-01T04:15:52.084Z,5
2016-07-01T04:16:50.812Z,5
2016-07-01T04:17:52.043Z,5
2016-07-01T04:18:52.056Z,5
2016-07-01T04:19:51.423Z,5
2016-07-01T04:20:52.695Z,5
2016-07-01T04:21:52.679Z,5
2016-07-01T04:22:51.488Z,0
2016-07-01T04:23:52.073Z,0
2016-07-01T04:24:52.077Z,0
2016-07-01T04:25:52.710Z,0
2016-07-01T04:26:52.136Z,0
2016-07-01T04:27:51.511Z,0
2016-07-01T04:28:51.488Z,5
2016-07-01T04:29:50.870Z,5
2016-07-01T04:30:52.114Z,5
2016-07-01T04:31:50.230Z,5
2016-07-01T04:32:50.869Z,5
2016-07-01T04:33:51.509Z,5
2016-07-01T04:34:51.479Z,10
2016-07-01T04:35:52.980Z,10
2016-07-01T04:36:52.751Z,10
2016-07-01T04:37:52.125Z,10
2016-07-01T04:38:52.768Z,5
2016-07-01T04:39:51.526Z,5
2016-07-01T04:40:52.791Z,5
2016-07-01T04:41:51.539Z,5
2016-07-01T04:42:52.780Z,5
2016-07-01T04:43:52.167Z,5
2016-07-01T04:44:50.937Z,5
2016-07-01T04:45:52.402Z,5
2016-07-01T04:46:52.817Z,5
2016-07-01T04:47:51.574Z,5
2016-07-01T04:48:52.179Z,5
2016-07-01T04:49:51.567Z,5
2016-07-01T04:50:52.821Z,5
2016-07-01T04:51:52.223Z,5
2016-07-01T04:52:50.983Z,5
2016-07-01T04:53:52.881Z,5
2016-07-01T04:54:51.602Z,5
2016-07-01T04:55:52.232Z,5
2016-07-01T04:56:52.845Z,5
2016-07-01T04:57:52.875Z,5
2016-07-01T04:58:51.254Z,5
2016-07-01T04:59:51.665Z,5
2016-07-01T05:00:51.016Z,5
2016-07-01T05:01:52.918Z,5
2016-07-01T05:02:52.880Z,5
2016-07-01T05:03:51.654Z,5
2016-07-01T05:04:52.896Z,5
2016-07-01T05:05:51.649Z,5
2016-07-01T05:06:52.896Z,5
2016-07-01T05:07:52.296Z,5
2016-07-01T05:08:53.006Z,5
2016-07-01T05:09:51.694Z,5
2016-07-01T05:10:52.925Z,5
2016-07-01T05:11:51.678Z,5
2016-07-01T05:12:52.931Z,5
2016-07-01T05:13:51.082Z,5
2016-07-01T05:14:52.931Z,5
2016-07-01T05:15:51.082Z,5
2016-07-01T05:16:52.320Z,10
2016-07-01T05:17:52.955Z,10
2016-07-01T05:18:51.093Z,10
2016-07-01T05:19:52.340Z,10
2016-07-01T05:20:51.718Z,10
2016-07-01T05:21:52.373Z,10
2016-07-01T05:22:51.735Z,10
2016-07-01T05:23:51.787Z,10
2016-07-01T05:24:52.982Z,10
2016-07-01T05:25:51.746Z,10
2016-07-01T05:26:52.426Z,10
2016-07-01T05:27:51.764Z,15
2016-07-01T05:28:52.381Z,15
2016-07-01T05:29:51.765Z,15
2016-07-01T05:30:51.149Z,15
2016-07-01T05:31:52.423Z,15
2016-07-01T05:32:51.177Z,15
2016-07-01T05:33:53.050Z,15
2016-07-01T05:34:52.430Z,15
2016-07-01T05:35:51.193Z,15
2016-07-01T05:36:51.826Z,15
2016-07-01T05:37:51.226Z,15
2016-07-01T05:38:52.445Z,20
2016-07-01T05:39:51.847Z,20
2016-07-01T05:40:53.085Z,20
2016-07-01T05:41:52.471Z,20
2016-07-01T05:42:52.473Z,20
2016-07-01T05:43:52.489Z,20
2016-07-01T05:44:51.873Z,15
2016-07-01T05:45:51.860Z,10
2016-07-01T05:46:52.490Z,10
2016-07-01T05:47:51.870Z,5
2016-07-01T05:48:50.670Z,5
2016-07-01T05:49:52.501Z,5
2016-07-01T05:50:51.914Z,10
2016-07-01T05:51:51.927Z,15
2016-07-01T05:52:51.294Z,15
2016-07-01T05:53:51.922Z,15
2016-07-01T05:54:51.290Z,20
2016-07-01T05:55:51.290Z,20
2016-07-01T05:56:51.295Z,15
2016-07-01T05:57:51.945Z,20
2016-07-01T05:58:51.313Z,20
2016-07-01T05:59:51.948Z,20
2016-07-01T06:00:51.939Z,20
2016-07-01T06:01:53.183Z,20
2016-07-01T06:02:52.586Z,20
2016-07-01T06:03:51.963Z,20
2016-07-01T06:04:52.603Z,20
2016-07-01T06:05:52.586Z,20
2016-07-01T06:06:52.585Z,20
2016-07-01T06:07:53.224Z,15
2016-07-01T06:08:51.970Z,15
2016-07-01T06:09:52.645Z,15
2016-07-01T06:10:51.402Z,10
2016-07-01T06:11:52.614Z,10
2016-07-01T06:12:51.995Z,10
2016-07-01T06:13:52.038Z,10
2016-07-01T06:14:52.645Z,10
2016-07-01T06:15:53.292Z,10
2016-07-01T06:16:51.418Z,15
2016-07-01T06:17:53.313Z,15
2016-07-01T06:18:52.650Z,20
2016-07-01T06:19:52.706Z,20
2016-07-01T06:20:53.291Z,15
2016-07-01T06:21:53.278Z,15
2016-07-01T06:22:53.326Z,15
2016-07-01T06:23:51.457Z,15
2016-07-01T06:24:52.743Z,15
2016-07-01T06:25:52.700Z,15
2016-07-01T06:26:52.099Z,15
2016-07-01T06:27:52.756Z,15
2016-07-01T06:28:53.353Z,20
2016-07-01T06:29:52.119Z,20
2016-07-01T06:30:52.743Z,20
2016-07-01T06:31:52.751Z,25
2016-07-01T06:32:53.372Z,25
2016-07-01T06:33:52.112Z,25
2016-07-01T06:34:52.741Z,25
2016-07-01T06:35:52.134Z,25
2016-07-01T06:36:52.779Z,25
2016-07-01T06:37:52.766Z,25
2016-07-01T06:38:53.399Z,25
2016-07-01T06:39:52.818Z,25
2016-07-01T06:40:53.396Z,30
2016-07-01T06:41:52.181Z,30
2016-07-01T06:42:52.176Z,30
2016-07-01T06:43:52.808Z,30
2016-07-01T06:44:52.792Z,35
2016-07-01T06:45:52.810Z,35
2016-07-01T06:46:52.804Z,35
2016-07-01T06:47:52.879Z,35
2016-07-01T06:48:52.856Z,40
2016-07-01T06:49:52.818Z,45
2016-07-01T06:50:51.591Z,50
2016-07-01T06:51:52.827Z,50
2016-07-01T06:52:52.218Z,50
2016-07-01T06:53:52.241Z,50
2016-07-01T06:54:52.852Z,60
2016-07-01T06:55:51.647Z,65
2016-07-01T06:56:52.886Z,60
2016-07-01T06:57:52.266Z,65
2016-07-01T06:58:53.493Z,70
2016-07-01T06:59:52.900Z,80
2016-07-01T07:00:52.878Z,115
2016-07-01T07:01:53.503Z,305
2016-07-01T07:02:52.910Z,675
2016-07-01T07:03:52.896Z,580
2016-07-01T07:04:52.272Z,190
2016-07-01T07:05:52.302Z,135
2016-07-01T07:06:52.926Z,95
2016-07-01T07:07:51.685Z,80
2016-07-01T07:08:52.922Z,70
2016-07-01T07:09:52.941Z,65
2016-07-01T07:10:52.377Z,65
2016-07-01T07:11:51.086Z,65
2016-07-01T07:12:52.950Z,65
2016-07-01T07:13:53.577Z,60
2016-07-01T07:14:51.145Z,60
2016-07-01T07:15:52.378Z,60
2016-07-01T07:16:52.422Z,55
2016-07-01T07:17:51.767Z,50
2016-07-01T07:18:52.994Z,50
2016-07-01T07:19:53.618Z,50
2016-07-01T07:20:53.009Z,55
2016-07-01T07:21:53.044Z,55
2016-07-01T07:22:52.388Z,55
2016-07-01T07:23:52.418Z,60
2016-07-01T07:24:52.455Z,65
2016-07-01T07:25:53.676Z,65
2016-07-01T07:26:53.725Z,65
2016-07-01T07:27:53.050Z,65
2016-07-01T07:28:51.808Z,65
2016-07-01T07:29:53.066Z,70
2016-07-01T07:30:53.094Z,70
2016-07-01T07:31:52.426Z,65
2016-07-01T07:32:53.068Z,65
2016-07-01T07:33:53.093Z,60
2016-07-01T07:34:53.069Z,60
2016-07-01T07:35:51.837Z,60
2016-07-01T07:36:52.468Z,55
2016-07-01T07:37:53.107Z,45
2016-07-01T07:38:53.726Z,40
2016-07-01T07:39:53.128Z,35
2016-07-01T07:40:52.514Z,35
2016-07-01T07:41:53.142Z,45
2016-07-01T07:42:52.532Z,50
2016-07-01T07:43:53.159Z,50
2016-07-01T07:44:53.133Z,50
2016-07-01T07:45:53.191Z,45
2016-07-01T07:46:53.153Z,45
2016-07-01T07:47:52.548Z,50
2016-07-01T07:48:53.802Z,55
2016-07-01T07:49:53.182Z,55
2016-07-01T07:50:53.787Z,60
2016-07-01T07:51:52.593Z,60
2016-07-01T07:52:51.946Z,60
2016-07-01T07:53:53.789Z,50
2016-07-01T07:54:52.603Z,55
2016-07-01T07:55:53.825Z,55
2016-07-01T07:56:53.195Z,55
2016-07-01T07:57:53.265Z,50
2016-07-01T07:58:52.014Z,55
2016-07-01T07:59:53.235Z,50
2016-07-01T08:00:53.215Z,55
2016-07-01T08:01:53.231Z,55
2016-07-01T08:02:53.854Z,55
2016-07-01T08:03:53.236Z,55
2016-07-01T08:04:52.025Z,55
2016-07-01T08:05:53.255Z,55
2016-07-01T08:06:52.022Z,60
2016-07-01T08:07:53.278Z,65
2016-07-01T08:08:53.273Z,65
2016-07-01T08:09:53.986Z,70
2016-07-01T08:10:52.929Z,65
2016-07-01T08:11:52.676Z,70
2016-07-01T08:12:53.306Z,70
2016-07-01T08:13:52.072Z,70
2016-07-01T08:14:52.691Z,70
2016-07-01T08:15:52.691Z,75
2016-07-01T08:16:53.327Z,75
2016-07-01T08:17:53.344Z,70
2016-07-01T08:18:53.326Z,70
2016-07-01T08:19:53.966Z,75
2016-07-01T08:20:53.344Z,80
2016-07-01T08:21:52.731Z,80
2016-07-01T08:22:53.981Z,85
2016-07-01T08:23:53.366Z,80
2016-07-01T08:24:52.165Z,75
2016-07-01T08:25:53.379Z,75
2016-07-01T08:26:53.382Z,75
2016-07-01T08:27:52.773Z,75
2016-07-01T08:28:52.143Z,75
2016-07-01T08:29:53.423Z,75
2016-07-01T08:30:53.464Z,75
2016-07-01T08:31:53.513Z,70
2016-07-01T08:32:52.181Z,70
2016-07-01T08:33:52.788Z,65
2016-07-01T08:34:52.804Z,65
2016-07-01T08:35:52.826Z,75
2016-07-01T08:36:53.444Z,80
2016-07-01T08:37:53.953Z,85
2016-07-01T08:38:51.630Z,85
2016-07-01T08:39:53.460Z,85
2016-07-01T08:40:52.826Z,90
2016-07-01T08:41:52.259Z,95
2016-07-01T08:42:53.464Z,100
2016-07-01T08:43:53.491Z,90
2016-07-01T08:44:53.488Z,85
2016-07-01T08:45:54.102Z,80
2016-07-01T08:46:52.889Z,70
2016-07-01T08:47:52.889Z,75
2016-07-01T08:48:52.906Z,75
2016-07-01T08:49:53.533Z,80
2016-07-01T08:50:52.896Z,85
2016-07-01T08:51:52.903Z,80
2016-07-01T08:52:52.940Z,70
2016-07-01T08:53:53.552Z,70
2016-07-01T08:54:52.317Z,75
2016-07-01T08:55:52.927Z,75
2016-07-01T08:56:52.929Z,75
2016-07-01T08:57:53.588Z,75
2016-07-01T08:58:52.990Z,80
2016-07-01T08:59:54.179Z,80
2016-07-01T09:00:53.573Z,75
2016-07-01T09:01:52.958Z,70
2016-07-01T09:02:53.646Z,70
2016-07-01T09:03:53.629Z,75
2016-07-01T09:04:51.748Z,85
2016-07-01T09:05:53.615Z,90
2016-07-01T09:06:53.728Z,100
2016-07-01T09:07:53.033Z,95
2016-07-01T09:08:53.054Z,95
2016-07-01T09:09:53.185Z,90
2016-07-01T09:10:53.702Z,85
2016-07-01T09:11:54.269Z,75
2016-07-01T09:12:53.702Z,70
2016-07-01T09:13:53.051Z,70
2016-07-01T09:14:53.072Z,75
2016-07-01T09:15:54.311Z,75
2016-07-01T09:16:53.689Z,75
2016-07-01T09:17:54.309Z,75
2016-07-01T09:18:54.317Z,75
2016-07-01T09:19:53.695Z,70
2016-07-01T09:20:53.083Z,70
2016-07-01T09:21:53.115Z,70
2016-07-01T09:22:53.725Z,70
2016-07-01T09:23:53.113Z,65
2016-07-01T09:24:53.117Z,65
2016-07-01T09:25:53.750Z,65
2016-07-01T09:26:53.774Z,75
2016-07-01T09:27:53.191Z,80
2016-07-01T09:28:54.389Z,80
2016-07-01T09:29:53.170Z,85
2016-07-01T09:30:53.163Z,85
2016-07-01T09:31:53.766Z,85
2016-07-01T09:32:54.188Z,75
2016-07-01T09:33:53.187Z,70
2016-07-01T09:34:53.798Z,70
2016-07-01T09:35:53.791Z,65
2016-07-01T09:36:54.402Z,60
2016-07-01T09:37:53.835Z,60
2016-07-01T09:38:53.804Z,60
2016-07-01T09:39:53.835Z,65
2016-07-01T09:40:53.831Z,70
2016-07-01T09:41:54.462Z,75
2016-07-01T09:42:54.074Z,75
2016-07-01T09:43:53.834Z,80
2016-07-01T09:44:53.225Z,80
2016-07-01T09:45:53.264Z,80
2016-07-01T09:46:53.243Z,75
2016-07-01T09:47:53.878Z,75
2016-07-01T09:48:53.261Z,75
2016-07-01T09:49:53.923Z,75
2016-07-01T09:50:53.273Z,75
2016-07-01T09:51:53.882Z,75
2016-07-01T09:52:52.029Z,80
2016-07-01T09:53:53.895Z,85
2016-07-01T09:54:52.654Z,85
2016-07-01T09:55:53.917Z,85
2016-07-01T09:56:52.050Z,90
2016-07-01T09:57:53.321Z,90
2016-07-01T09:58:53.934Z,85
2016-07-01T09:59:53.959Z,90
2016-07-01T10:00:53.936Z,85
2016-07-01T10:01:53.983Z,75
2016-07-01T10:02:53.963Z,75
2016-07-01T10:03:53.341Z,70
2016-07-01T10:04:53.977Z,70
2016-07-01T10:05:53.966Z,70
2016-07-01T10:06:53.975Z,75
2016-07-01T10:07:53.354Z,75
2016-07-01T10:08:54.003Z,70
2016-07-01T10:09:54.044Z,75
2016-07-01T10:10:54.037Z,75
2016-07-01T10:11:53.370Z,85
2016-07-01T10:12:52.774Z,85
2016-07-01T10:13:54.639Z,80
2016-07-01T10:14:54.023Z,75
2016-07-01T10:15:53.459Z,70
2016-07-01T10:16:54.671Z,65
2016-07-01T10:17:54.059Z,70
2016-07-01T10:18:54.681Z,80
2016-07-01T10:19:52.826Z,95
2016-07-01T10:20:54.069Z,110
2016-07-01T10:21:53.454Z,120
2016-07-01T10:22:54.088Z,130
2016-07-01T10:23:54.087Z,120
2016-07-01T10:24:53.484Z,115
2016-07-01T10:25:52.862Z,105
2016-07-01T10:26:52.886Z,100
2016-07-01T10:27:54.107Z,90
2016-07-01T10:28:52.867Z,85
2016-07-01T10:29:53.856Z,85
2016-07-01T10:30:54.784Z,85
2016-07-01T10:31:53.518Z,90
2016-07-01T10:32:52.892Z,90
2016-07-01T10:33:54.138Z,80
2016-07-01T10:34:54.256Z,70
2016-07-01T10:35:53.542Z,70
2016-07-01T10:36:54.779Z,75
2016-07-01T10:37:54.860Z,70
2016-07-01T10:38:53.582Z,55
2016-07-01T10:39:54.188Z,45
2016-07-01T10:40:53.567Z,40
2016-07-01T10:41:54.250Z,30
2016-07-01T10:42:53.593Z,30
2016-07-01T10:43:54.834Z,25
2016-07-01T10:44:53.594Z,25
2016-07-01T10:45:54.233Z,25
2016-07-01T10:46:53.614Z,25
2016-07-01T10:47:54.226Z,20
2016-07-01T10:48:53.617Z,15
2016-07-01T10:49:53.620Z,15
2016-07-01T10:50:54.257Z,20
2016-07-01T10:51:54.912Z,25
2016-07-01T10:52:54.265Z,25
2016-07-01T10:53:53.661Z,30
2016-07-01T10:54:53.048Z,35
2016-07-01T10:55:52.430Z,35
2016-07-01T10:56:53.669Z,40
2016-07-01T10:57:53.669Z,40
2016-07-01T10:58:53.695Z,35
2016-07-01T10:59:53.679Z,30
2016-07-01T11:00:54.316Z,25
2016-07-01T11:01:54.337Z,25
2016-07-01T11:02:54.938Z,20
2016-07-01T11:03:53.718Z,20
2016-07-01T11:04:53.126Z,20
2016-07-01T11:05:53.097Z,20
2016-07-01T11:06:53.725Z,20
2016-07-01T11:07:53.111Z,15
2016-07-01T11:08:53.127Z,15
2016-07-01T11:09:54.407Z,15
2016-07-01T11:10:54.991Z,15
2016-07-01T11:11:54.381Z,20
2016-07-01T11:12:53.759Z,20
2016-07-01T11:13:54.423Z,25
2016-07-01T11:14:54.391Z,25
2016-07-01T11:15:54.407Z,20
2016-07-01T11:16:52.573Z,25
2016-07-01T11:17:54.413Z,20
2016-07-01T11:18:54.434Z,20
2016-07-01T11:19:54.445Z,20
2016-07-01T11:20:55.058Z,15
2016-07-01T11:21:54.453Z,15
2016-07-01T11:22:54.445Z,15
2016-07-01T11:23:53.835Z,15
2016-07-01T11:24:55.057Z,15
2016-07-01T11:25:53.856Z,20
2016-07-01T11:26:54.478Z,20
2016-07-01T11:27:54.464Z,20
2016-07-01T11:28:53.907Z,20
2016-07-01T11:29:55.183Z,20
2016-07-01T11:30:55.153Z,25
2016-07-01T11:31:53.267Z,30
2016-07-01T11:32:53.896Z,35
2016-07-01T11:33:53.882Z,50
2016-07-01T11:36:31.982Z,55
2016-07-01T11:37:17.179Z,65
2016-07-01T11:38:17.755Z,65
2016-07-01T11:39:18.383Z,75
2016-07-01T11:40:17.778Z,65
2016-07-01T11:41:17.800Z,70
2016-07-01T11:42:17.801Z,65
2016-07-01T11:43:17.843Z,45
2016-07-01T11:44:18.403Z,35
2016-07-01T11:45:17.199Z,35
2016-07-01T11:46:18.426Z,30
2016-07-01T11:47:17.191Z,40
2016-07-01T11:48:17.195Z,35
2016-07-01T11:49:17.850Z,35
2016-07-01T11:50:17.212Z,30
2016-07-01T11:51:17.834Z,30
2016-07-01T11:52:18.473Z,30
2016-07-01T11:53:18.471Z,40
2016-07-01T11:54:18.446Z,40
2016-07-01T11:55:17.883Z,30
2016-07-01T11:56:17.882Z,20
2016-07-01T11:57:18.483Z,15
2016-07-01T11:58:17.870Z,15
2016-07-01T11:59:17.899Z,15
2016-07-01T12:00:17.876Z,15
2016-07-01T12:01:17.491Z,10
2016-07-01T12:02:18.518Z,10
2016-07-01T12:03:17.287Z,10
2016-07-01T12:04:17.911Z,10
2016-07-01T12:05:17.942Z,10
2016-07-01T12:06:17.306Z,10
2016-07-01T12:07:17.933Z,10
2016-07-01T12:08:16.718Z,10
2016-07-01T12:09:17.947Z,10
2016-07-01T12:10:18.041Z,10
2016-07-01T12:11:18.560Z,10
2016-07-01T12:12:18.576Z,10
2016-07-01T12:13:17.965Z,10
2016-07-01T12:14:17.972Z,10
2016-07-01T12:15:18.653Z,10
2016-07-01T12:16:18.597Z,10
2016-07-01T12:17:16.770Z,10
2016-07-01T12:18:17.975Z,10
2016-07-01T12:19:16.766Z,10
2016-07-01T12:20:17.378Z,10
2016-07-01T12:21:17.391Z,15
2016-07-01T12:22:18.638Z,15
2016-07-01T12:23:18.010Z,15
2016-07-01T12:24:18.019Z,15
2016-07-01T12:25:17.418Z,15
2016-07-01T12:26:18.026Z,10
2016-07-01T12:27:17.431Z,10
2016-07-01T12:28:18.026Z,10
2016-07-01T12:29:18.429Z,10
2016-07-01T12:30:18.072Z,10
2016-07-01T12:31:18.134Z,10
2016-07-01T12:32:18.688Z,5
2016-07-01T12:33:16.828Z,5
2016-07-01T12:34:16.821Z,5
2016-07-01T12:35:18.063Z,5
2016-07-01T12:36:17.488Z,5
2016-07-01T12:37:18.117Z,5
2016-07-01T12:38:18.698Z,5
2016-07-01T12:39:18.072Z,10
2016-07-01T12:40:18.145Z,10
2016-07-01T12:41:18.129Z,15
2016-07-01T12:42:17.575Z,20
2016-07-01T12:43:18.679Z,25
2016-07-01T12:44:18.716Z,35
2016-07-01T12:45:17.532Z,40
2016-07-01T12:46:17.553Z,45
2016-07-01T12:47:17.487Z,50
2016-07-01T12:48:17.560Z,55
2016-07-01T12:49:18.170Z,75
2016-07-01T12:50:16.951Z,85
2016-07-01T12:51:17.507Z,90
2016-07-01T12:52:18.746Z,110
2016-07-01T12:53:16.930Z,115
2016-07-01T12:54:18.772Z,115
2016-07-01T12:55:18.190Z,110
2016-07-01T12:56:18.755Z,100
2016-07-01T12:57:18.199Z,100
2016-07-01T12:58:18.218Z,100
2016-07-01T12:59:18.210Z,100
2016-07-01T13:00:18.817Z,90
2016-07-01T13:01:17.650Z,95
2016-07-01T13:02:18.232Z,95
2016-07-01T13:03:17.600Z,95
2016-07-01T13:04:17.577Z,90
2016-07-01T13:05:18.848Z,85
2016-07-01T13:06:17.573Z,80
2016-07-01T13:07:18.875Z,70
2016-07-01T13:08:17.647Z,70
2016-07-01T13:09:18.227Z,65
2016-07-01T13:10:18.914Z,60
2016-07-01T13:11:18.325Z,50
2016-07-01T13:12:18.199Z,45
2016-07-01T13:13:18.415Z,40
2016-07-01T13:14:17.645Z,45
2016-07-01T13:15:18.216Z,45
2016-07-01T13:16:18.258Z,40
2016-07-01T13:17:17.628Z,45
2016-07-01T13:18:17.023Z,45
2016-07-01T13:19:18.324Z,45
2016-07-01T13:20:16.404Z,50
2016-07-01T13:21:16.394Z,65
2016-07-01T13:22:18.280Z,70
2016-07-01T13:23:17.071Z,70
2016-07-01T13:24:18.279Z,70
2016-07-01T13:25:18.321Z,65
2016-07-01T13:26:17.655Z,65
2016-07-01T13:27:17.710Z,60
2016-07-01T13:28:17.738Z,60
2016-07-01T13:29:18.272Z,60
2016-07-01T13:30:17.832Z,55
2016-07-01T13:31:18.286Z,65
2016-07-01T13:32:17.728Z,65
2016-07-01T13:33:17.684Z,65
2016-07-01T13:34:18.309Z,55
2016-07-01T13:35:18.923Z,50
2016-07-01T13:36:17.729Z,50
2016-07-01T13:37:18.315Z,45
2016-07-01T13:38:17.722Z,40
2016-07-01T13:39:17.107Z,40
2016-07-01T13:40:18.331Z,40
2016-07-01T13:41:18.335Z,40
2016-07-01T13:42:17.803Z,45
2016-07-01T13:43:18.360Z,50
2016-07-01T13:44:17.145Z,50
2016-07-01T13:45:18.983Z,45
2016-07-01T13:46:17.150Z,40
2016-07-01T13:47:18.379Z,25
2016-07-01T13:48:17.780Z,25
2016-07-01T13:49:17.779Z,20
2016-07-01T13:50:16.572Z,20
2016-07-01T13:51:17.808Z,20
2016-07-01T13:52:17.182Z,30
2016-07-01T13:53:17.811Z,40
2016-07-01T13:54:17.200Z,50
2016-07-01T13:55:17.834Z,65
2016-07-01T13:56:19.047Z,70
2016-07-01T13:57:17.219Z,80
2016-07-01T13:58:17.831Z,90
2016-07-01T13:59:17.840Z,90
2016-07-01T14:00:19.085Z,85
2016-07-01T14:01:17.861Z,85
2016-07-01T14:02:17.866Z,80
2016-07-01T14:03:17.876Z,85
2016-07-01T14:04:19.102Z,90
2016-07-01T14:05:18.501Z,85
2016-07-01T14:06:17.282Z,80
2016-07-01T14:07:18.508Z,85
2016-07-01T14:08:17.898Z,90
2016-07-01T14:09:18.525Z,95
2016-07-01T14:10:19.133Z,95
2016-07-01T14:11:18.585Z,95
2016-07-01T14:12:18.535Z,90
2016-07-01T14:13:18.541Z,75
2016-07-01T14:14:17.934Z,60
2016-07-01T14:15:18.553Z,55
2016-07-01T14:16:17.345Z,50
2016-07-01T14:17:19.821Z,50
2016-07-01T14:18:17.345Z,50
2016-07-01T14:19:17.357Z,50
2016-07-01T14:20:16.742Z,60
2016-07-01T14:21:17.363Z,65
2016-07-01T14:22:18.601Z,75
2016-07-01T14:23:17.989Z,80
2016-07-01T14:24:17.380Z,85
2016-07-01T14:25:17.391Z,90
2016-07-01T14:26:16.790Z,90
2016-07-01T14:27:18.628Z,85
2016-07-01T14:28:17.421Z,75